Time;durP1;ratioP1;P1;durP2;ratioP2;P2;SDS_P1;SDS_P2;PMS_P1;PMS_P2;Temp;Humidity;BMP_temperature;BMP_pressure;BME280_temperature;BME280_humidity;BME280_pressure;Samples;Min_cycle;Max_cycle;Signal;HPM_P1;HPM_P2
2022/12/21 00:01:53;;;;;;;2.92;0.57;;;19.80;68.10;;;;;;4994494;28;20029;-72
2022/12/21 00:04:19;;;;;;;1.40;0.47;;;19.80;68.10;;;;;;4994487;28;20092;-73
2022/12/21 00:06:44;;;;;;;1.75;0.60;;;19.80;68.10;;;;;;4976371;28;20111;-72
2022/12/21 00:09:11;;;;;;;2.85;1.20;;;19.80;68.10;;;;;;4993314;28;20054;-73
2022/12/21 00:11:37;;;;;;;2.35;0.70;;;19.80;68.10;;;;;;4976856;28;20022;-72
2022/12/21 00:14:04;;;;;;;3.83;0.75;;;19.80;68.10;;;;;;4993926;28;20508;-72
2022/12/21 00:16:31;;;;;;;2.25;0.60;;;19.80;68.20;;;;;;4994746;28;20029;-72
2022/12/21 00:18:57;;;;;;;1.75;0.75;;;19.80;68.20;;;;;;4976970;28;20026;-73
2022/12/21 00:21:28;;;;;;;3.17;0.57;;;19.80;68.40;;;;;;4976929;28;20484;-72
2022/12/21 00:23:54;;;;;;;2.47;0.95;;;19.80;68.40;;;;;;4976891;28;20460;-73
2022/12/21 00:26:23;;;;;;;1.33;0.60;;;19.80;68.40;;;;;;4976686;28;20018;-73
2022/12/21 00:28:49;;;;;;;2.47;0.77;;;19.90;68.50;;;;;;4993923;28;20461;-73
2022/12/21 00:31:17;;;;;;;2.20;0.85;;;19.90;68.40;;;;;;4976960;28;20044;-73
2022/12/21 00:33:43;;;;;;;1.42;0.70;;;19.90;68.40;;;;;;4976816;28;20057;-73
2022/12/21 00:36:10;;;;;;;2.13;0.75;;;19.90;68.30;;;;;;4976626;28;20441;-73
2022/12/21 00:38:36;;;;;;;1.95;0.80;;;19.90;68.40;;;;;;4976906;28;20441;-73
2022/12/21 00:41:05;;;;;;;1.27;0.52;;;19.90;68.30;;;;;;4993743;28;20046;-73
2022/12/21 00:43:32;;;;;;;1.40;0.65;;;19.90;68.30;;;;;;4976345;28;20027;-73
2022/12/21 00:45:58;;;;;;;2.28;0.70;;;19.90;68.30;;;;;;4976518;28;20033;-73
2022/12/21 00:48:25;;;;;;;1.80;0.90;;;19.90;68.30;;;;;;4976485;28;20015;-73
2022/12/21 00:50:51;;;;;;;0.98;0.60;;;19.90;68.30;;;;;;4993812;28;20027;-73
2022/12/21 00:53:17;;;;;;;1.35;0.70;;;19.90;68.30;;;;;;4976194;28;20022;-73
2022/12/21 00:55:55;;;;;;;1.27;0.50;;;19.90;68.30;;;;;;4976239;28;20034;-73
2022/12/21 00:58:21;;;;;;;1.95;0.70;;;19.90;68.30;;;;;;4976505;28;20026;-73
2022/12/21 01:00:47;;;;;;;1.20;0.52;;;19.90;68.30;;;;;;4976441;28;20037;-73
2022/12/21 01:03:13;;;;;;;1.30;0.70;;;19.90;68.30;;;;;;4976229;28;20026;-73
2022/12/21 01:05:38;;;;;;;0.70;0.60;;;19.90;68.30;;;;;;4993441;28;20023;-73
2022/12/21 01:08:04;;;;;;;2.15;0.93;;;19.90;68.30;;;;;;4993139;28;20037;-72
2022/12/21 01:10:30;;;;;;;0.93;0.57;;;19.90;68.40;;;;;;4993549;28;20030;-73
2022/12/21 01:12:57;;;;;;;2.08;0.80;;;19.90;68.50;;;;;;4993036;28;20029;-73
2022/12/21 01:15:23;;;;;;;1.63;0.57;;;20.00;68.50;;;;;;4993345;28;20022;-73
2022/12/21 01:17:48;;;;;;;0.73;0.50;;;20.00;68.60;;;;;;4993138;28;20101;-73
2022/12/21 01:20:14;;;;;;;1.42;0.60;;;19.90;68.60;;;;;;4993150;28;20095;-73
2022/12/21 01:22:40;;;;;;;1.98;0.77;;;20.00;68.70;;;;;;4993128;28;20094;-73
2022/12/21 01:25:06;;;;;;;1.38;0.88;;;20.00;68.70;;;;;;4992957;28;20028;-73
2022/12/21 01:27:31;;;;;;;2.83;0.70;;;20.00;68.80;;;;;;4975802;28;20102;-73
2022/12/21 01:29:57;;;;;;;2.20;0.77;;;20.00;68.90;;;;;;4975640;28;20485;-72
2022/12/21 01:32:23;;;;;;;5.80;1.05;;;20.00;68.90;;;;;;4993092;28;20019;-73
2022/12/21 01:34:48;;;;;;;1.10;0.60;;;20.00;68.80;;;;;;4976058;28;20040;-73
2022/12/21 01:37:14;;;;;;;0.65;0.60;;;20.00;68.90;;;;;;4975745;28;20109;-73
2022/12/21 01:39:39;;;;;;;2.17;0.50;;;20.00;68.90;;;;;;4992815;28;20073;-72
2022/12/21 01:42:11;;;;;;;0.75;0.55;;;20.00;69.00;;;;;;4992846;28;20058;-72
2022/12/21 01:45:04;;;;;;;1.60;0.40;;;20.00;69.00;;;;;;4975704;28;20147;-72
2022/12/21 01:47:35;;;;;;;1.17;0.43;;;20.00;70.10;;;;;;4976532;28;20018;-72
2022/12/21 01:50:15;;;;;;;1.83;0.47;;;20.00;68.90;;;;;;4992997;28;20433;-72
2022/12/21 01:52:40;;;;;;;2.08;0.60;;;20.00;69.00;;;;;;4975434;28;20027;-72
2022/12/21 01:55:06;;;;;;;0.93;0.40;;;20.00;69.00;;;;;;4992620;28;20037;-72
2022/12/21 01:57:32;;;;;;;1.00;0.52;;;20.00;69.00;;;;;;4992874;28;20080;-72
2022/12/21 01:59:59;;;;;;;0.80;0.45;;;20.00;68.90;;;;;;4975515;28;20397;-72
2022/12/21 02:02:41;;;;;;;1.70;0.60;;;20.00;68.90;;;;;;4955882;28;20493;-72
2022/12/21 02:05:45;;;;;;;0.68;0.40;;;20.00;68.90;;;;;;4973517;28;20034;-72
2022/12/21 02:08:10;;;;;;;0.70;0.50;;;20.00;68.90;;;;;;4973066;28;20054;-73
2022/12/21 02:10:36;;;;;;;1.17;0.55;;;20.00;68.80;;;;;;4972027;28;20066;-72
2022/12/21 02:13:04;;;;;;;1.67;0.68;;;20.00;68.80;;;;;;4973284;28;20090;-72
2022/12/21 02:16:07;;;;;;;0.40;0.40;;;20.00;68.80;;;;;;4972368;28;20118;-72
2022/12/21 02:18:57;;;;;;;2.25;0.57;;;20.00;68.80;;;;;;4973446;28;20062;-72
2022/12/21 02:21:29;;;;;;;1.27;0.60;;;20.00;68.80;;;;;;4973261;28;20027;-72
2022/12/21 02:24:03;;;;;;;1.38;0.82;;;20.00;68.80;;;;;;4971989;28;20057;-72
2022/12/21 02:26:32;;;;;;;1.77;0.50;;;20.00;68.80;;;;;;4973189;28;20027;-72
2022/12/21 02:28:57;;;;;;;0.93;0.40;;;20.00;68.90;;;;;;4973847;28;20019;-72
2022/12/21 02:31:51;;;;;;;1.15;0.50;;;19.90;68.90;;;;;;4976813;28;20030;-72
2022/12/21 02:34:22;;;;;;;0.77;0.40;;;20.00;68.90;;;;;;4976731;28;20031;-72
2022/12/21 02:37:11;;;;;;;1.10;0.60;;;19.90;68.90;;;;;;4976763;28;20027;-72
2022/12/21 02:39:54;;;;;;;1.15;0.47;;;19.90;68.90;;;;;;4975574;28;20408;-72
2022/12/21 02:45:26;;;;;;;1.48;0.60;;;19.90;68.90;;;;;;4975533;28;20077;-72
2022/12/21 02:47:56;;;;;;;4.38;0.50;;;19.90;68.90;;;;;;4975473;28;20043;-72
2022/12/21 02:50:26;;;;;;;1.13;0.50;;;19.90;68.90;;;;;;4975458;28;20133;-72
2022/12/21 02:53:05;;;;;;;1.60;0.70;;;19.90;68.90;;;;;;4977552;28;20469;-72
2022/12/21 02:55:31;;;;;;;0.35;0.35;;;19.90;68.90;;;;;;4979260;28;20027;-72
2022/12/21 02:58:14;;;;;;;1.48;0.60;;;19.90;69.00;;;;;;4995831;28;20046;-73
2022/12/21 03:01:16;;;;;;;0.90;0.50;;;19.90;68.90;;;;;;4995733;28;20045;-72
2022/12/21 03:03:57;;;;;;;1.77;0.43;;;19.90;68.90;;;;;;4975775;28;20041;-72
2022/12/21 03:06:43;;;;;;;1.10;0.50;;;19.90;69.00;;;;;;4995591;28;20397;-72
2022/12/21 03:09:14;;;;;;;0.95;0.43;;;19.90;69.00;;;;;;4995427;28;20046;-72
2022/12/21 03:11:45;;;;;;;0.60;0.30;;;19.90;69.20;;;;;;4978295;28;20030;-72
2022/12/21 03:14:20;;;;;;;1.38;0.60;;;19.90;69.20;;;;;;4995470;28;20034;-72
2022/12/21 03:16:53;;;;;;;0.65;0.57;;;19.90;69.30;;;;;;4978255;28;20393;-72
2022/12/21 03:19:35;;;;;;;1.98;0.80;;;19.90;69.40;;;;;;4978038;28;20550;-72
2022/12/21 03:22:06;;;;;;;1.17;0.50;;;19.90;69.30;;;;;;4977894;28;20031;-72
2022/12/21 03:24:51;;;;;;;0.63;0.52;;;19.90;69.30;;;;;;4978129;28;20027;-72
2022/12/21 03:27:22;;;;;;;0.82;0.82;;;19.90;69.30;;;;;;4978325;28;20034;-72
2022/12/21 03:29:53;;;;;;;1.40;0.60;;;19.90;69.30;;;;;;4978189;28;20454;-72
2022/12/21 03:32:25;;;;;;;0.70;0.40;;;19.90;69.20;;;;;;4977730;28;20029;-72
2022/12/21 03:34:51;;;;;;;0.47;0.40;;;19.90;69.20;;;;;;4977857;28;20485;-72
2022/12/21 03:37:22;;;;;;;2.42;0.40;;;19.90;69.30;;;;;;4977569;28;20044;-72
2022/12/21 03:39:51;;;;;;;0.30;0.30;;;19.90;69.30;;;;;;4977840;28;20485;-72
2022/12/21 03:42:28;;;;;;;0.77;0.50;;;19.90;69.20;;;;;;4976540;28;20389;-72
2022/12/21 03:44:59;;;;;;;1.33;0.55;;;19.90;69.20;;;;;;4977645;28;20022;-73
2022/12/21 03:47:33;;;;;;;0.40;0.38;;;19.90;69.20;;;;;;4978162;28;20030;-72
2022/12/21 03:50:00;;;;;;;0.52;0.45;;;19.90;69.30;;;;;;4978374;28;20022;-72
2022/12/21 03:52:35;;;;;;;1.05;0.40;;;19.90;69.20;;;;;;4977542;28;20022;-72
2022/12/21 03:55:08;;;;;;;0.93;0.30;;;19.90;70.30;;;;;;4977558;28;20417;-72
2022/12/21 03:57:34;;;;;;;;;;;19.90;69.40;;;;;;4961942;28;20022;-72
2022/12/21 04:00:00;;;;;;;0.95;0.50;;;19.90;69.30;;;;;;4993860;28;19956;-72
2022/12/21 04:02:43;;;;;;;1.98;0.43;;;19.90;69.30;;;;;;4961046;28;20427;-72
2022/12/21 04:05:45;;;;;;;2.10;0.50;;;19.90;69.30;;;;;;4978834;28;20022;-72
2022/12/21 04:08:10;;;;;;;0.68;0.40;;;19.90;69.40;;;;;;4977874;28;20038;-72
2022/12/21 04:10:36;;;;;;;1.38;0.50;;;19.90;69.40;;;;;;4977249;28;20053;-72
2022/12/21 04:13:02;;;;;;;1.63;0.40;;;19.90;69.40;;;;;;4977245;28;20026;-72
2022/12/21 04:16:03;;;;;;;0.60;0.45;;;19.90;69.50;;;;;;4976902;28;20038;-72
2022/12/21 04:18:13;;;;;;;0.95;0.45;;;19.90;69.50;;;;;;4979754;28;20400;-72
2022/12/21 04:20:39;;;;;;;0.75;0.40;;;19.90;69.50;;;;;;4994205;28;20037;-72
2022/12/21 04:28:33;;;;;;;0.38;0.38;;;19.80;69.60;;;;;;4979576;28;20034;-72
2022/12/21 04:30:59;;;;;;;0.50;0.40;;;19.90;69.70;;;;;;4976735;28;20026;-72
2022/12/21 04:33:25;;;;;;;0.75;0.50;;;19.90;69.90;;;;;;4976588;28;20113;-72
2022/12/21 04:38:37;;;;;;;0.40;0.30;;;19.80;69.70;;;;;;4979166;28;20392;-72
2022/12/21 04:41:03;;;;;;;1.30;0.60;;;19.90;69.70;;;;;;4994117;28;20093;-72
2022/12/21 04:43:29;;;;;;;0.57;0.43;;;19.90;69.90;;;;;;4976317;28;20545;-72
2022/12/21 04:46:04;;;;;;;2.10;0.52;;;19.80;69.80;;;;;;4976561;28;20620;-72
2022/12/21 04:48:30;;;;;;;0.70;0.47;;;19.90;70.00;;;;;;4976186;28;20397;-72
2022/12/21 04:50:56;;;;;;;2.17;0.50;;;19.80;69.90;;;;;;4976451;28;20045;-72
2022/12/21 04:53:22;;;;;;;0.95;0.47;;;19.90;70.00;;;;;;4975752;28;20057;-72
2022/12/21 04:55:47;;;;;;;0.60;0.43;;;19.80;70.00;;;;;;4993658;28;20022;-72
2022/12/21 04:58:13;;;;;;;0.75;0.40;;;19.80;69.90;;;;;;4976269;28;20030;-72
2022/12/21 05:00:38;;;;;;;0.77;0.50;;;19.80;70.00;;;;;;4993663;28;20080;-72
2022/12/21 05:03:04;;;;;;;0.55;0.25;;;19.90;70.10;;;;;;4993522;28;20034;-72
2022/12/21 05:05:30;;;;;;;0.93;0.40;;;19.80;70.10;;;;;;4993190;28;20031;-72
2022/12/21 05:07:56;;;;;;;2.00;0.50;;;19.80;70.10;;;;;;4976264;28;20073;-72
2022/12/21 05:10:21;;;;;;;0.47;0.30;;;19.80;70.10;;;;;;4975813;28;20505;-72
2022/12/21 05:12:47;;;;;;;0.47;0.40;;;19.80;70.10;;;;;;4976141;28;20026;-72
2022/12/21 05:15:13;;;;;;;0.22;0.20;;;19.80;70.10;;;;;;4993313;28;20567;-72
2022/12/21 05:17:41;;;;;;;0.45;0.30;;;19.90;70.20;;;;;;4993083;28;20057;-72
2022/12/21 05:20:07;;;;;;;0.35;0.35;;;19.90;70.20;;;;;;4993335;28;20098;-72
2022/12/21 05:22:33;;;;;;;2.65;0.63;;;19.80;70.20;;;;;;4975985;28;20037;-72
2022/12/21 05:24:58;;;;;;;0.47;0.30;;;19.80;70.20;;;;;;4975848;28;20023;-72
2022/12/21 05:27:24;;;;;;;0.77;0.40;;;19.90;70.20;;;;;;4993142;28;20026;-72
2022/12/21 05:29:50;;;;;;;0.70;0.30;;;19.80;70.20;;;;;;4992989;28;20010;-72
2022/12/21 05:32:16;;;;;;;0.50;0.30;;;19.90;70.30;;;;;;4975711;28;20378;-72
2022/12/21 05:34:41;;;;;;;0.13;0.13;;;19.80;70.20;;;;;;4993315;28;20392;-72
2022/12/21 05:37:07;;;;;;;0.57;0.40;;;19.80;70.20;;;;;;4976028;28;20096;-72
2022/12/21 05:39:34;;;;;;;0.30;0.30;;;19.90;70.20;;;;;;4975748;28;20022;-72
2022/12/21 05:42:01;;;;;;;0.43;0.22;;;19.80;70.20;;;;;;4993029;28;20058;-72
2022/12/21 05:44:27;;;;;;;0.50;0.40;;;19.80;70.20;;;;;;4975619;28;20022;-72
2022/12/21 05:46:52;;;;;;;1.45;0.40;;;19.80;70.30;;;;;;4992806;28;20088;-72
2022/12/21 05:49:18;;;;;;;0.40;0.40;;;19.80;70.30;;;;;;4992948;28;20026;-72
2022/12/21 05:51:49;;;;;;;0.95;0.40;;;19.80;70.20;;;;;;4975500;28;20042;-72
2022/12/21 05:54:15;;;;;;;0.30;0.30;;;19.80;70.20;;;;;;4975282;28;20033;-72
2022/12/21 05:56:41;;;;;;;0.57;0.40;;;19.80;70.20;;;;;;4975632;28;20038;-72
2022/12/21 05:59:07;;;;;;;1.92;0.40;;;19.80;70.20;;;;;;4975783;28;20388;-72
2022/12/21 06:01:32;;;;;;;0.30;0.30;;;19.80;70.30;;;;;;4974841;28;20060;-72
2022/12/21 06:03:58;;;;;;;0.63;0.40;;;19.80;70.40;;;;;;4959818;28;20109;-72
2022/12/21 06:06:23;;;;;;;0.35;0.30;;;19.80;70.30;;;;;;4995378;28;20038;-72
2022/12/21 06:08:49;;;;;;;4.07;0.30;;;19.80;70.30;;;;;;4988938;28;20042;-72
2022/12/21 06:11:17;;;;;;;0.45;0.40;;;19.80;70.20;;;;;;4982767;28;20465;-72
2022/12/21 06:13:43;;;;;;;2.85;0.50;;;19.90;70.20;;;;;;4979783;28;20022;-72
2022/12/21 06:16:13;;;;;;;2.35;0.70;;;19.80;70.10;;;;;;4979242;28;20516;-72
2022/12/21 06:18:39;;;;;;;1.48;0.30;;;19.80;70.10;;;;;;4979871;28;20022;-72
2022/12/21 06:21:04;;;;;;;2.15;0.50;;;19.80;70.10;;;;;;4966593;28;20121;-72
2022/12/21 06:23:30;;;;;;;1.45;0.55;;;19.90;70.20;;;;;;4996273;28;20595;-72
2022/12/21 06:25:56;;;;;;;0.80;0.32;;;19.80;70.20;;;;;;4979286;28;20457;-72
2022/12/21 06:28:23;;;;;;;0.82;0.40;;;19.80;70.10;;;;;;4978883;28;20068;-72
2022/12/21 06:30:50;;;;;;;1.65;0.57;;;19.80;70.10;;;;;;4978861;28;20026;-72
2022/12/21 06:33:16;;;;;;;0.75;0.38;;;19.80;70.10;;;;;;4996637;28;20042;-72
2022/12/21 06:35:42;;;;;;;0.90;0.65;;;19.80;70.10;;;;;;4996300;28;20339;-72
2022/12/21 06:38:07;;;;;;;1.10;0.32;;;19.80;70.10;;;;;;4996398;28;20121;-72
2022/12/21 06:40:33;;;;;;;0.85;0.45;;;19.80;70.20;;;;;;4978806;28;20411;-72
2022/12/21 06:42:59;;;;;;;0.98;0.70;;;19.80;70.10;;;;;;4996240;28;20513;-72
2022/12/21 06:45:24;;;;;;;2.33;0.57;;;19.90;70.20;;;;;;4995643;28;20027;-72
2022/12/21 06:47:53;;;;;;;1.05;0.32;;;19.80;70.10;;;;;;4978716;28;20034;-73
2022/12/21 06:50:22;;;;;;;2.35;0.40;;;19.80;70.20;;;;;;4978638;28;20026;-72
2022/12/21 06:52:48;;;;;;;0.55;0.40;;;19.80;70.10;;;;;;4995946;28;20022;-72
2022/12/21 06:55:14;;;;;;;0.65;0.25;;;19.90;70.20;;;;;;4978408;28;20045;-73
2022/12/21 06:57:39;;;;;;;0.85;0.40;;;19.80;70.20;;;;;;4995915;28;20030;-73
2022/12/21 07:00:06;;;;;;;1.40;0.30;;;19.80;70.20;;;;;;4978348;28;20034;-72
2022/12/21 07:02:31;;;;;;;0.40;0.30;;;19.80;70.20;;;;;;4995946;28;20037;-72
2022/12/21 07:04:57;;;;;;;0.65;0.38;;;19.80;70.20;;;;;;4978199;28;20428;-72
2022/12/21 07:07:23;;;;;;;0.88;0.35;;;19.80;70.20;;;;;;4995646;28;20029;-72
2022/12/21 07:09:49;;;;;;;1.13;0.43;;;19.80;70.20;;;;;;4978366;28;20046;-72
2022/12/21 07:12:14;;;;;;;1.88;0.30;;;19.80;70.20;;;;;;4995679;28;20018;-72
2022/12/21 07:14:40;;;;;;;2.20;0.40;;;19.90;70.30;;;;;;4995005;28;20026;-72
2022/12/21 07:17:05;;;;;;;0.57;0.30;;;19.90;70.30;;;;;;4995726;28;20033;-72
2022/12/21 07:19:31;;;;;;;3.03;0.32;;;19.90;70.30;;;;;;4995313;28;20042;-72
2022/12/21 07:21:57;;;;;;;0.55;0.40;;;19.90;70.30;;;;;;4995234;28;20026;-72
2022/12/21 07:24:22;;;;;;;3.30;0.40;;;19.90;70.40;;;;;;4991173;28;20449;-72
2022/12/21 07:26:48;;;;;;;3.22;0.40;;;19.90;70.40;;;;;;4995195;28;20022;-72
2022/12/21 07:29:14;;;;;;;0.98;0.63;;;19.90;70.40;;;;;;4977606;28;20046;-72
2022/12/21 07:31:39;;;;;;;1.45;0.52;;;19.90;71.50;;;;;;4994979;28;20026;-72
2022/12/21 07:34:05;;;;;;;0.93;0.30;;;19.80;70.40;;;;;;4995129;28;20430;-72
2022/12/21 07:36:30;;;;;;;2.92;0.45;;;19.80;70.40;;;;;;4995182;28;20528;-72
2022/12/21 07:38:56;;;;;;;4.07;0.30;;;19.90;70.40;;;;;;4977579;28;20551;-72
2022/12/21 07:41:22;;;;;;;0.32;0.30;;;19.80;70.40;;;;;;4994829;28;20050;-72
2022/12/21 07:43:47;;;;;;;0.63;0.30;;;19.80;70.40;;;;;;4977239;28;20053;-72
2022/12/21 07:46:14;;;;;;;0.57;0.30;;;19.90;70.50;;;;;;4977354;28;20109;-72
2022/12/21 07:48:39;;;;;;;1.05;0.38;;;19.90;70.40;;;;;;4977171;28;20030;-72
2022/12/21 07:51:05;;;;;;;0.50;0.30;;;19.90;70.50;;;;;;4994721;28;20415;-71
2022/12/21 07:53:31;;;;;;;1.20;0.57;;;19.80;70.30;;;;;;4977116;28;20065;-72
2022/12/21 07:56:04;;;;;;;1.50;0.40;;;19.90;70.40;;;;;;4994600;28;20022;-72
2022/12/21 07:58:29;;;;;;;0.40;0.20;;;19.80;70.30;;;;;;4976864;28;20035;-72
2022/12/21 08:00:55;;;;;;;1.75;0.30;;;19.90;70.50;;;;;;4974101;28;20388;-72
2022/12/21 08:03:21;;;;;;;0.40;0.28;;;19.80;70.40;;;;;;4941693;28;20464;-72
2022/12/21 08:05:46;;;;;;;0.60;0.30;;;19.90;70.40;;;;;;4974666;28;20029;-72
2022/12/21 08:08:12;;;;;;;1.65;0.32;;;19.80;70.40;;;;;;4974613;28;20029;-72
2022/12/21 08:10:37;;;;;;;0.75;0.40;;;19.80;70.40;;;;;;4974974;28;20030;-72
2022/12/21 08:13:03;;;;;;;2.10;0.40;;;19.90;70.40;;;;;;4974294;28;20037;-72
2022/12/21 08:15:29;;;;;;;0.40;0.30;;;19.80;70.40;;;;;;4973591;28;20026;-72
2022/12/21 08:17:54;;;;;;;0.20;0.15;;;19.90;70.50;;;;;;4973024;28;20450;-72
2022/12/21 08:20:20;;;;;;;0.40;0.20;;;19.80;70.40;;;;;;4972751;28;20517;-72
2022/12/21 08:22:46;;;;;;;2.08;0.22;;;19.90;70.50;;;;;;4955559;28;20509;-72
2022/12/21 08:25:12;;;;;;;1.02;0.52;;;19.80;70.50;;;;;;4973029;28;20409;-72
2022/12/21 08:27:37;;;;;;;0.20;0.20;;;19.80;70.40;;;;;;4972604;28;20050;-72
2022/12/21 08:30:04;;;;;;;0.63;0.30;;;19.90;70.50;;;;;;4956790;28;20042;-72
2022/12/21 08:32:29;;;;;;;0.32;0.20;;;19.80;70.40;;;;;;4974755;28;20103;-72
2022/12/21 08:34:55;;;;;;;2.10;0.30;;;19.80;70.50;;;;;;4957092;28;20034;-72
2022/12/21 08:37:21;;;;;;;0.63;0.20;;;19.80;70.50;;;;;;4973546;28;20568;-72
2022/12/21 08:39:46;;;;;;;2.00;0.38;;;19.90;70.60;;;;;;4957340;28;20138;-72
2022/12/21 08:42:13;;;;;;;0.98;0.20;;;19.90;70.60;;;;;;4974312;28;20043;-72
2022/12/21 08:44:38;;;;;;;0.60;0.25;;;19.90;70.60;;;;;;4974434;28;20397;-72
2022/12/21 08:47:06;;;;;;;1.55;0.50;;;19.90;70.60;;;;;;4974386;28;20033;-72
2022/12/21 08:49:31;;;;;;;0.50;0.22;;;19.90;70.60;;;;;;4974327;28;20022;-72
2022/12/21 08:51:57;;;;;;;0.65;0.20;;;19.80;70.60;;;;;;4957206;28;20397;-72
2022/12/21 08:54:24;;;;;;;0.73;0.32;;;19.90;70.70;;;;;;4988760;28;20400;-72
2022/12/21 08:56:49;;;;;;;0.35;0.10;;;19.80;70.60;;;;;;4993336;28;20022;-72
2022/12/21 08:59:15;;;;;;;0.82;0.43;;;19.90;70.70;;;;;;4976445;28;20497;-72
2022/12/21 09:01:41;;;;;;;1.75;0.22;;;19.80;70.60;;;;;;4992620;28;20030;-72
2022/12/21 09:04:06;;;;;;;0.20;0.20;;;19.90;70.70;;;;;;4993519;28;20041;-72
2022/12/21 09:06:32;;;;;;;0.60;0.25;;;19.80;70.70;;;;;;4992682;28;20053;-72
2022/12/21 09:08:58;;;;;;;0.25;0.20;;;19.90;70.70;;;;;;4993221;28;20455;-73
2022/12/21 09:11:24;;;;;;;0.52;0.22;;;19.90;70.60;;;;;;4993315;28;20029;-72
2022/12/21 09:13:49;;;;;;;0.68;0.30;;;19.90;70.70;;;;;;4993474;28;20030;-72
2022/12/21 09:16:20;;;;;;;1.63;0.20;;;19.90;70.70;;;;;;4976060;28;20029;-72
2022/12/21 09:18:46;;;;;;;0.73;0.28;;;19.90;70.60;;;;;;4992143;28;20033;-72
2022/12/21 09:21:13;;;;;;;0.60;0.30;;;19.90;70.70;;;;;;4992206;28;20030;-72
2022/12/21 09:23:38;;;;;;;0.20;0.20;;;19.90;70.70;;;;;;4975784;28;20456;-72
2022/12/21 09:26:05;;;;;;;0.50;0.20;;;19.90;70.60;;;;;;4992070;28;20050;-72
2022/12/21 09:28:31;;;;;;;1.30;0.15;;;19.90;70.60;;;;;;4992117;28;20072;-72
2022/12/21 09:31:15;;;;;;;0.40;0.20;;;19.90;70.70;;;;;;4991987;28;20101;-72
2022/12/21 09:33:41;;;;;;;0.60;0.32;;;19.90;70.70;;;;;;4991947;28;20022;-72
2022/12/21 09:36:07;;;;;;;1.38;0.22;;;19.90;70.70;;;;;;4975862;28;20023;-72
2022/12/21 09:38:33;;;;;;;0.30;0.30;;;19.90;70.70;;;;;;4991875;28;20023;-72
2022/12/21 09:41:05;;;;;;;0.43;0.30;;;19.90;70.70;;;;;;4991900;28;20096;-72
2022/12/21 09:44:20;;;;;;;0.30;0.30;;;19.90;70.70;;;;;;4992964;28;20102;-72
2022/12/21 09:46:46;;;;;;;0.32;0.20;;;19.90;70.70;;;;;;4985968;28;20031;-72
2022/12/21 09:49:15;;;;;;;0.45;0.13;;;19.90;70.70;;;;;;4975872;28;20559;-72
2022/12/21 09:51:41;;;;;;;1.38;0.65;;;19.90;70.70;;;;;;4975903;28;20503;-72
2022/12/21 09:54:15;;;;;;;0.55;0.20;;;19.90;70.70;;;;;;4966074;28;20157;-72
2022/12/21 09:56:43;;;;;;;0.35;0.20;;;19.90;70.70;;;;;;4975715;28;20448;-72
2022/12/21 09:59:11;;;;;;;1.10;0.20;;;19.90;70.70;;;;;;4975876;28;20022;-72
2022/12/21 10:02:10;;;;;;;0.20;0.20;;;19.90;70.70;;;;;;4975613;28;20058;-72
2022/12/21 10:04:50;;;;;;;1.55;0.20;;;19.90;70.70;;;;;;4978235;28;20030;-72
2022/12/21 10:07:34;;;;;;;0.30;0.30;;;19.90;70.70;;;;;;4992614;28;20034;-72
2022/12/21 10:10:08;;;;;;;1.15;0.30;;;19.90;70.70;;;;;;4992713;28;20050;-72
2022/12/21 10:12:39;;;;;;;0.38;0.25;;;19.90;70.80;;;;;;4975607;28;20125;-72
2022/12/21 10:15:24;;;;;;;0.52;0.10;;;19.90;70.80;;;;;;4992978;28;20026;-72
2022/12/21 10:18:13;;;;;;;0.30;0.30;;;19.90;70.80;;;;;;4992577;28;20515;-72
2022/12/21 10:21:00;;;;;;;0.55;0.20;;;19.90;71.90;;;;;;4975250;28;20027;-72
2022/12/21 10:23:34;;;;;;;0.20;0.20;;;19.90;70.90;;;;;;4975339;28;20023;-72
2022/12/21 10:26:02;;;;;;;1.27;0.20;;;19.90;70.90;;;;;;4975312;28;20023;-72
2022/12/21 10:28:51;;;;;;;2.08;0.28;;;19.90;70.80;;;;;;4975651;28;20023;-72
2022/12/21 10:31:27;;;;;;;0.40;0.20;;;19.90;70.90;;;;;;4975178;28;20022;-72
2022/12/21 10:33:54;;;;;;;0.40;0.20;;;19.90;70.80;;;;;;4975241;28;20026;-72
2022/12/21 10:36:22;;;;;;;0.13;0.10;;;19.90;70.90;;;;;;4975044;28;20027;-72
2022/12/21 10:38:47;;;;;;;0.20;0.20;;;19.90;70.80;;;;;;4992485;28;20081;-72
2022/12/21 10:41:21;;;;;;;0.70;0.60;;;20.00;70.90;;;;;;4992600;28;20121;-72
2022/12/21 10:43:48;;;;;;;1.80;0.20;;;19.90;70.90;;;;;;4992444;28;20050;-72
2022/12/21 10:46:16;;;;;;;0.20;0.10;;;19.90;70.50;;;;;;4992547;28;20053;-73
2022/12/21 10:48:42;;;;;;;0.85;0.20;;;19.90;68.90;;;;;;4972718;28;20025;-71
2022/12/21 10:51:21;;;;;;;2.75;0.30;;;19.90;68.30;;;;;;4981202;28;20026;-70
2022/12/21 10:54:00;;;;;;;3.83;0.20;;;19.90;68.10;;;;;;4963126;28;20046;-72
2022/12/21 10:56:26;;;;;;;1.17;0.20;;;19.90;67.70;;;;;;4996447;28;20026;-71
2022/12/21 10:58:52;;;;;;;2.30;0.30;;;19.90;67.60;;;;;;4978519;28;20081;-72
2022/12/21 11:01:24;;;;;;;1.98;0.20;;;19.80;67.30;;;;;;4973176;28;20027;-71
2022/12/21 11:04:31;;;;;;;0.40;0.10;;;19.90;67.30;;;;;;4959578;28;20025;-72
2022/12/21 11:07:05;;;;;;;0.10;0.10;;;19.80;67.30;;;;;;4958802;28;20038;-71
2022/12/21 11:09:34;;;;;;;0.30;0.20;;;19.80;67.20;;;;;;4993066;28;20594;-71
2022/12/21 11:12:19;;;;;;;0.65;0.30;;;19.80;67.20;;;;;;4995922;28;20026;-72
2022/12/21 11:14:44;;;;;;;0.38;0.20;;;19.80;67.20;;;;;;4978315;28;20022;-72
2022/12/21 11:17:23;;;;;;;0.95;0.35;;;19.80;67.10;;;;;;4978705;28;20096;-72
2022/12/21 11:20:06;;;;;;;0.20;0.10;;;19.80;67.00;;;;;;4995537;28;20113;-72
2022/12/21 11:22:31;;;;;;;0.40;0.20;;;19.80;66.80;;;;;;4978717;28;20030;-72
2022/12/21 11:24:58;;;;;;;0.20;0.10;;;19.80;66.80;;;;;;4994271;28;20430;-71
2022/12/21 11:27:31;;;;;;;0.60;0.20;;;19.80;66.70;;;;;;4978165;28;20077;-72
2022/12/21 11:30:21;;;;;;;0.10;0.10;;;19.80;66.70;;;;;;4994326;28;20022;-71
2022/12/21 11:32:47;;;;;;;0.20;0.10;;;19.80;66.80;;;;;;4980601;28;20035;-72
2022/12/21 11:35:20;;;;;;;1.30;0.20;;;19.80;66.70;;;;;;4994166;28;20026;-72
2022/12/21 11:37:51;;;;;;;0.70;0.20;;;19.80;66.70;;;;;;4995231;28;20034;-72
2022/12/21 11:40:20;;;;;;;5.10;0.20;;;19.80;66.60;;;;;;4961634;28;20030;-72
2022/12/21 11:43:02;;;;;;;0.75;0.10;;;19.80;66.70;;;;;;4995326;28;20028;-72
2022/12/21 11:45:46;;;;;;;0.10;0.10;;;19.80;66.60;;;;;;4964623;28;20027;-72
2022/12/21 11:48:46;;;;;;;3.40;0.28;;;19.80;67.60;;;;;;4977884;28;20458;-72
2022/12/21 11:51:30;;;;;;;1.67;0.20;;;19.80;66.60;;;;;;4963434;28;20062;-72
2022/12/21 11:54:17;;;;;;;0.10;0.10;;;19.80;66.70;;;;;;4995069;28;20081;-72
2022/12/21 11:56:46;;;;;;;1.63;0.15;;;19.80;66.50;;;;;;4995209;28;20027;-72
2022/12/21 11:59:36;;;;;;;0.20;0.20;;;19.80;66.50;;;;;;4977965;28;20033;-72
2022/12/21 12:02:38;;;;;;;0.28;0.10;;;19.80;66.50;;;;;;4992490;28;20026;-72
2022/12/21 12:05:37;;;;;;;1.05;0.10;;;19.80;66.50;;;;;;4992605;28;20502;-72
2022/12/21 12:08:08;;;;;;;0.30;0.20;;;19.80;66.50;;;;;;4986372;28;20019;-73
2022/12/21 12:10:50;;;;;;;0.55;0.20;;;19.80;66.50;;;;;;4975807;28;20034;-72
2022/12/21 12:13:21;;;;;;;0.20;0.05;;;19.80;66.60;;;;;;4958630;28;20106;-72
2022/12/21 12:15:59;;;;;;;1.33;0.13;;;19.80;66.60;;;;;;4975738;28;20026;-72
2022/12/21 12:18:37;;;;;;;0.35;0.20;;;19.80;66.60;;;;;;4977269;28;20482;-72
2022/12/21 12:21:18;;;;;;;1.77;0.15;;;19.80;66.60;;;;;;4972527;28;20042;-72
2022/12/21 12:24:05;;;;;;;0.38;0.20;;;19.80;66.50;;;;;;4988160;28;20117;-72
2022/12/21 12:26:40;;;;;;;0.80;0.25;;;19.80;66.70;;;;;;4994992;28;20027;-72
2022/12/21 12:29:30;;;;;;;1.45;0.38;;;19.80;66.60;;;;;;4994777;28;20022;-72
2022/12/21 12:32:05;;;;;;;1.50;0.20;;;19.80;66.70;;;;;;4961284;28;20393;-72
2022/12/21 12:34:42;;;;;;;0.60;0.22;;;19.80;66.60;;;;;;4961012;28;20041;-72
2022/12/21 12:37:30;;;;;;;0.98;0.35;;;19.80;66.70;;;;;;4993719;28;20492;-72
2022/12/21 12:40:06;;;;;;;2.60;0.40;;;19.80;66.80;;;;;;4977479;28;20014;-72
2022/12/21 12:42:51;;;;;;;1.05;0.30;;;19.80;66.80;;;;;;4974892;28;20030;-72
2022/12/21 12:45:32;;;;;;;1.70;0.30;;;19.80;66.80;;;;;;4962184;28;20019;-72
2022/12/21 12:48:22;;;;;;;1.60;0.30;;;19.80;66.80;;;;;;4991275;28;20030;-72
2022/12/21 12:51:17;;;;;;;11.30;1.58;;;19.80;66.80;;;;;;4992002;28;20018;-72
2022/12/21 12:53:54;;;;;;;15.07;2.33;;;19.90;66.90;;;;;;4979251;28;20042;-72
2022/12/21 12:56:48;;;;;;;14.18;3.20;;;19.80;67.50;;;;;;4991316;28;20044;-72
2022/12/21 12:59:26;;;;;;;23.92;4.00;;;19.90;68.00;;;;;;4991654;28;20102;-72
2022/12/21 13:02:07;;;;;;;22.02;3.47;;;19.90;68.50;;;;;;4963017;28;20539;-72
2022/12/21 13:04:46;;;;;;;14.85;3.75;;;19.90;68.80;;;;;;4991918;28;20394;-72
2022/12/21 13:07:40;;;;;;;23.13;3.88;;;19.90;68.90;;;;;;4975316;28;20018;-72
2022/12/21 13:10:17;;;;;;;14.52;3.67;;;19.90;69.10;;;;;;4976790;28;20046;-72
2022/12/21 13:12:46;;;;;;;18.50;3.55;;;19.90;69.00;;;;;;4991601;28;20400;-72
2022/12/21 13:15:37;;;;;;;19.10;3.75;;;19.90;68.90;;;;;;4991758;28;20105;-72
2022/12/21 13:18:14;;;;;;;19.17;3.85;;;19.90;68.90;;;;;;4991770;28;20026;-72